Wednesday, February 21, 2018, 8:12 PM EST
Back to Local

KWWD, Wildwood, Cape May County Airport

Location: Villas, NJ, United States Lat: 39.017
Local Time: 8:12 PM EST ( 1:12 GMT) Lon: -74.917
Time Zone: US/Eastern Elev: 22 ft

Show me the last for .
Show Decoded

2018-02-21 19:55 METAR KWWD 220055Z AUTO 20007KT 10SM CLR 16/13 A3034 RMK AO2 SLP275 T01560133 =
2018-02-21 18:55 METAR KWWD 212355Z AUTO 18006KT 10SM CLR 17/13 A3033 RMK AO2 SLP273 T01670133
                 10239 20161 53010 =
2018-02-21 17:55 METAR KWWD 212255Z AUTO 20009KT 10SM CLR 17/13 A3032 RMK AO2 SLP268 T01720133 =
2018-02-21 16:55 METAR KWWD 212155Z AUTO 22011G17KT 10SM CLR 23/16 A3030 RMK AO2 SLP264 T02280161
                 =
2018-02-21 15:55 METAR KWWD 212055Z AUTO 23011G19KT 10SM CLR 23/16 A3030 RMK AO2 SLP262 T02330156
                 56009 =
2018-02-21 14:55 METAR KWWD 211955Z AUTO 22013G20KT 10SM BKN095 23/16 A3030 RMK AO2 SLP262
                 T02330161 =
2018-02-21 13:55 METAR KWWD 211855Z AUTO 22016KT 10SM CLR 23/17 A3030 RMK AO2 PK WND 22026/1822
                 SLP263 T02330167 =
2018-02-21 12:55 METAR KWWD 211755Z AUTO 23021G26KT 10SM CLR 22/16 A3033 RMK AO2 PK WND
                 22026/1748 SLP272 T02170161 10222 20133 58015 =
2018-02-21 12:13 METAR KWWD 211713Z AUTO 23014KT 10SM SCT017 21/17 A3035 RMK AO2 =
2018-02-21 11:55 METAR KWWD 211655Z AUTO 23013G21KT 10SM OVC017 21/16 A3036 RMK AO2 SLP283
                 T02060161 =
2018-02-21 10:55 METAR KWWD 211555Z AUTO 23017G25KT 10SM BKN017 21/16 A3038 RMK AO2 SLP288
                 T02060161 =
2018-02-21 10:46 METAR KWWD 211546Z AUTO 23017KT 10SM BKN017 20/16 A3038 RMK AO2 =
2018-02-21 10:13 METAR KWWD 211513Z AUTO 23015G20KT 10SM SCT013 20/17 A3037 RMK AO2 =
2018-02-21 09:55 METAR KWWD 211455Z AUTO 22014KT 10SM OVC013 19/17 A3037 RMK AO2 SLP287 T01890167
                 58001 =
2018-02-21 08:55 METAR KWWD 211355Z AUTO 22011KT 10SM OVC011 18/17 A3038 RMK AO2 SLP290 T01780167
                 =
2018-02-21 08:49 METAR KWWD 211349Z AUTO 21013KT 10SM OVC011 17/17 A3038 RMK AO2 =
2018-02-21 08:18 METAR KWWD 211318Z AUTO 21012KT 9SM OVC009 17/17 A3037 RMK AO2 CIG 007V010 =
2018-02-21 07:55 METAR KWWD 211255Z AUTO 21008KT 7SM OVC011 15/15 A3038 RMK AO2 SLP288 T01500150
                 =
2018-02-21 06:33 METAR KWWD 211133Z AUTO 20009KT 7SM SCT001 OVC011 14/14 A3037 RMK AO2 =
2018-02-21 06:26 METAR KWWD 211126Z AUTO 20009KT 6SM BR BKN001 OVC013 14/14 A3037 RMK AO2 =
2018-02-21 06:19 METAR KWWD 211119Z AUTO 20009KT 2SM BR BKN001 OVC013 14/14 A3037 RMK AO2 =
2018-02-21 06:13 METAR KWWD 211113Z AUTO 20010KT 1SM BR BKN001 OVC013 13/13 A3036 RMK AO2 =
2018-02-21 06:01 METAR KWWD 211101Z AUTO 20008KT 1/2SM FG OVC001 13/13 A3036 RMK AO2 =
2018-02-21 05:55 METAR KWWD 211055Z AUTO 20007KT 1/4SM FG OVC001 12/12 A3036 RMK AO2 SLP283
                 T01220122 =
2018-02-21 04:55 METAR KWWD 210955Z AUTO 18007KT 1/4SM FG OVC001 11/11 A3036 RMK AO2 SLP284
                 T01060106 =
2018-02-21 03:55 METAR KWWD 210855Z AUTO 18007KT 1/4SM FG OVC001 11/11 A3037 RMK AO2 SLP286
                 T01110111 58007 =
2018-02-21 02:55 METAR KWWD 210755Z AUTO 16008KT 1/4SM FG OVC001 11/11 A3037 RMK AO2 SLP287
                 T01110111 =
2018-02-21 02:39 METAR KWWD 210739Z AUTO 17006KT 1/4SM FG OVC001 12/12 A3038 RMK AO2 =
2018-02-21 01:55 METAR KWWD 210655Z AUTO 16007KT 1/2SM FG OVC001 11/11 A3039 RMK AO2 SLP292
                 T01060106 =
2018-02-21 01:38 METAR KWWD 210638Z AUTO 16006KT 1/2SM FG OVC001 11/11 A3039 RMK AO2 =
2018-02-21 00:55 METAR KWWD 210555Z AUTO 16006KT 3/4SM BR OVC001 12/11 A3039 RMK AO2 SLP293
                 T01170111 10161 20117 51001 =
2018-02-21 00:52 METAR KWWD 210552Z AUTO 17006KT 3/4SM BR OVC001 12/11 A3039 RMK AO2 =
2018-02-21 00:32 METAR KWWD 210532Z AUTO 18006KT 1SM BR OVC001 12/12 A3039 RMK AO2 =
2018-02-21 00:07 METAR KWWD 210507Z AUTO 17005KT 1 1/4SM BR OVC001 13/12 A3039 RMK AO2 =
2018-02-20 23:55 METAR KWWD 210455Z AUTO 18007KT 2SM BR BKN001 OVC046 13/12 A3039 RMK AO2 SLP294
                 T01280122 402110089 =
2018-02-20 23:51 METAR KWWD 210451Z AUTO 17007KT 2 1/2SM BR BKN001 BKN046 13/13 A3039 RMK AO2
                 402110089 =
2018-02-20 23:47 METAR KWWD 210447Z AUTO 18008KT 3SM BR SCT001 BKN046 13/13 A3039 RMK AO2 =
2018-02-20 22:55 METAR KWWD 210355Z AUTO 19007KT 10SM OVC037 16/14 A3039 RMK AO2 SLP292 T01560144
                 =
2018-02-20 21:55 METAR KWWD 210255Z AUTO 19011KT 9SM OVC042 16/15 A3039 RMK AO2 SLP292 T01560150
                 50003 =
2018-02-20 21:12 METAR KWWD 210212Z AUTO 20011KT 5SM BR FEW003 14/14 A3039 RMK AO2 =
2018-02-20 20:55 METAR KWWD 210155Z AUTO 20011KT 8SM CLR 15/14 A3039 RMK AO2 SLP293 T01500144 =

Support USWX by starting your Amazon purchase here.